createdAt,value
2022-09-30T00:00:56.655Z,69.89
2022-09-30T00:03:24.306Z,71.01
2022-09-30T00:06:07.614Z,69.04
2022-09-30T00:08:34.984Z,69.46
2022-09-30T00:11:06.044Z,68.61
2022-09-30T00:13:35.635Z,68.82
2022-09-30T00:16:02.454Z,68.37
2022-09-30T00:18:30.071Z,68.43
2022-09-30T00:20:57.043Z,68.62
2022-09-30T00:23:24.178Z,68.90
2022-09-30T00:25:51.726Z,68.84
2022-09-30T00:28:18.292Z,69.45
2022-09-30T00:30:44.931Z,69.19
2022-09-30T00:33:11.607Z,68.85
2022-09-30T00:35:38.366Z,68.62
2022-09-30T00:38:05.170Z,68.35
2022-09-30T00:40:31.964Z,68.25
2022-09-30T00:43:00.127Z,68.40
2022-09-30T00:45:33.142Z,67.92
2022-09-30T00:48:15.373Z,69.04
2022-09-30T00:50:49.749Z,69.50
2022-09-30T00:53:30.977Z,68.73
2022-09-30T00:56:04.748Z,68.59
2022-09-30T00:58:36.063Z,68.12
2022-09-30T01:01:03.167Z,67.75
2022-09-30T01:03:40.566Z,67.45
2022-09-30T01:06:07.625Z,66.99
2022-09-30T01:08:37.366Z,67.03
2022-09-30T01:11:07.971Z,66.90
2022-09-30T01:13:37.945Z,67.23
2022-09-30T01:16:23.098Z,66.92
2022-09-30T01:19:17.621Z,67.12
2022-09-30T01:21:59.208Z,67.20
2022-09-30T01:24:47.836Z,67.07
2022-09-30T01:27:39.118Z,67.43
2022-09-30T01:30:08.642Z,67.44
2022-09-30T01:32:38.120Z,68.00
2022-09-30T01:35:24.158Z,67.34
2022-09-30T01:38:11.623Z,67.09
2022-09-30T01:41:05.805Z,66.68
2022-09-30T01:44:04.995Z,69.26
2022-09-30T01:46:44.563Z,68.83
2022-09-30T01:49:27.579Z,67.72
2022-09-30T01:51:59.989Z,67.88
2022-09-30T01:54:55.158Z,67.16
2022-09-30T01:58:12.661Z,67.85
2022-09-30T02:00:44.256Z,68.49
2022-09-30T02:03:17.831Z,68.06
2022-09-30T02:05:57.840Z,68.49
2022-09-30T02:08:36.764Z,68.97
2022-09-30T02:11:10.893Z,69.77
2022-09-30T02:13:49.820Z,68.80
2022-09-30T02:16:24.408Z,68.24
2022-09-30T02:18:55.720Z,68.28
2022-09-30T02:21:33.645Z,68.93
2022-09-30T02:24:06.085Z,69.12
2022-09-30T02:26:37.659Z,69.45
2022-09-30T02:29:17.134Z,68.92
2022-09-30T02:31:47.724Z,69.21
2022-09-30T02:34:25.226Z,68.53
2022-09-30T02:36:56.213Z,68.73
2022-09-30T02:39:31.933Z,68.19
2022-09-30T02:42:04.642Z,67.42
2022-09-30T02:44:31.922Z,67.73
2022-09-30T02:47:10.818Z,67.41
2022-09-30T02:49:48.562Z,67.09
2022-09-30T02:52:47.273Z,67.36
2022-09-30T02:55:25.649Z,68.64
2022-09-30T02:57:55.418Z,69.69
2022-09-30T03:00:22.132Z,69.36
2022-09-30T03:02:50.204Z,69.05
2022-09-30T03:05:17.637Z,70.03
2022-09-30T03:07:44.314Z,69.45
2022-09-30T03:10:16.154Z,70.21
2022-09-30T03:13:10.888Z,70.01
2022-09-30T03:16:01.213Z,69.01
2022-09-30T03:18:52.520Z,68.90
2022-09-30T03:21:25.271Z,68.90
2022-09-30T03:24:12.533Z,69.20
2022-09-30T03:26:47.993Z,69.18
2022-09-30T03:29:14.837Z,70.69
2022-09-30T03:31:51.002Z,71.30
2022-09-30T03:34:42.165Z,71.56
2022-09-30T03:37:34.721Z,70.87
2022-09-30T03:40:25.213Z,71.76
2022-09-30T03:42:58.419Z,72.25
2022-09-30T03:45:50.122Z,72.59
2022-09-30T03:48:19.475Z,71.68
2022-09-30T03:50:46.740Z,72.07
2022-09-30T03:53:13.821Z,71.41
2022-09-30T03:55:52.289Z,72.97
2022-09-30T03:58:23.326Z,73.55
2022-09-30T04:00:57.221Z,73.69
2022-09-30T04:03:23.959Z,73.72
2022-09-30T04:05:50.631Z,74.37
2022-09-30T04:08:17.668Z,73.66
2022-09-30T04:10:44.493Z,74.11
2022-09-30T04:13:11.867Z,73.50
2022-09-30T04:15:38.827Z,74.73
2022-09-30T04:18:05.823Z,74.92
2022-09-30T04:20:32.897Z,74.31
2022-09-30T04:23:01.102Z,75.69
2022-09-30T04:25:28.414Z,75.56
2022-09-30T04:27:56.510Z,75.65
2022-09-30T04:30:26.378Z,75.48
2022-09-30T04:32:54.786Z,75.62
2022-09-30T04:35:21.718Z,75.17
2022-09-30T04:37:48.563Z,80.20
2022-09-30T04:40:16.370Z,78.37
2022-09-30T04:42:44.084Z,79.02
2022-09-30T04:45:12.273Z,78.02
2022-09-30T04:47:40.004Z,78.53
2022-09-30T04:50:07.515Z,79.51
2022-09-30T04:52:34.419Z,79.27
2022-09-30T04:55:01.010Z,77.83
2022-09-30T04:57:27.638Z,77.82
2022-09-30T04:59:54.277Z,78.11
2022-09-30T05:02:21.213Z,78.20
2022-09-30T05:04:47.928Z,78.57
2022-09-30T05:07:14.517Z,79.57
2022-09-30T05:09:41.220Z,78.67
2022-09-30T05:12:08.243Z,78.89
2022-09-30T05:14:34.843Z,78.30
2022-09-30T05:17:02.216Z,77.97
2022-09-30T05:19:29.494Z,78.18
2022-09-30T05:21:56.233Z,76.95
2022-09-30T05:24:22.884Z,76.64
2022-09-30T05:26:49.496Z,77.45
2022-09-30T05:29:16.115Z,80.48
2022-09-30T05:31:43.190Z,79.85
2022-09-30T05:34:12.627Z,79.38
2022-09-30T05:36:39.250Z,78.04
2022-09-30T05:39:05.870Z,77.80
2022-09-30T05:41:32.755Z,78.88
2022-09-30T05:44:01.274Z,79.21
2022-09-30T05:46:28.367Z,80.26
2022-09-30T05:48:55.431Z,79.22
2022-09-30T05:51:22.194Z,79.07
2022-09-30T05:53:48.809Z,78.19
2022-09-30T05:56:18.126Z,78.92
2022-09-30T05:58:44.809Z,82.01
2022-09-30T06:01:14.214Z,82.09
2022-09-30T06:03:45.557Z,81.47
2022-09-30T06:06:12.929Z,79.90
2022-09-30T06:08:40.327Z,79.44
2022-09-30T06:11:13.241Z,80.73
2022-09-30T06:13:41.683Z,82.22
2022-09-30T06:16:09.353Z,85.88
2022-09-30T06:18:36.915Z,83.34
2022-09-30T06:21:05.269Z,84.96
2022-09-30T06:23:35.115Z,85.35
2022-09-30T06:26:03.548Z,84.56
2022-09-30T06:28:30.408Z,83.58
2022-09-30T06:31:01.472Z,82.04
2022-09-30T06:33:28.867Z,81.19
2022-09-30T06:35:55.682Z,84.12
2022-09-30T06:38:23.247Z,83.46
2022-09-30T06:40:50.527Z,82.58
2022-09-30T06:43:18.024Z,80.61
2022-09-30T06:45:49.894Z,81.32
2022-09-30T06:48:20.059Z,80.82
2022-09-30T06:51:01.332Z,80.21
2022-09-30T06:53:29.383Z,80.82
2022-09-30T06:55:58.833Z,83.75
2022-09-30T06:58:25.887Z,83.22
2022-09-30T07:01:06.453Z,80.14
2022-09-30T07:03:35.750Z,77.77
2022-09-30T07:06:05.515Z,80.28
2022-09-30T07:08:34.430Z,79.06
2022-09-30T07:11:04.498Z,78.15
2022-09-30T07:13:31.304Z,79.22
2022-09-30T07:15:58.190Z,80.21
2022-09-30T07:18:28.086Z,76.96
2022-09-30T07:20:56.298Z,76.31
2022-09-30T07:23:27.038Z,76.87
2022-09-30T07:26:00.331Z,76.48
2022-09-30T07:28:32.047Z,76.36
2022-09-30T07:31:30.754Z,75.97
2022-09-30T07:33:52.842Z,75.81
2022-09-30T07:36:31.871Z,76.32
2022-09-30T07:39:00.381Z,76.46
2022-09-30T07:41:29.230Z,74.67
2022-09-30T07:43:59.771Z,77.48
2022-09-30T07:46:32.390Z,77.16
2022-09-30T07:49:04.178Z,74.92
2022-09-30T07:51:35.848Z,77.19
2022-09-30T07:54:07.830Z,75.77
2022-09-30T07:56:57.814Z,75.19
2022-09-30T07:59:23.171Z,75.23
2022-09-30T08:01:50.847Z,76.55
2022-09-30T08:04:19.779Z,74.72
2022-09-30T08:06:50.142Z,75.41
2022-09-30T08:09:19.346Z,74.07
2022-09-30T08:11:46.039Z,72.54
2022-09-30T08:14:16.697Z,72.66
2022-09-30T08:16:43.447Z,72.00
2022-09-30T08:19:18.073Z,73.00
2022-09-30T08:21:45.389Z,71.74
2022-09-30T08:24:13.014Z,72.52
2022-09-30T08:26:40.400Z,71.69
2022-09-30T08:29:07.513Z,70.41
2022-09-30T08:31:34.777Z,70.17
2022-09-30T08:34:03.171Z,70.14
2022-09-30T08:36:30.412Z,68.14
2022-09-30T08:38:57.186Z,68.37
2022-09-30T08:41:43.157Z,67.92
2022-09-30T08:44:46.426Z,67.77
2022-09-30T08:47:31.519Z,67.20
2022-09-30T08:50:16.809Z,67.22
2022-09-30T08:52:54.127Z,65.86
2022-09-30T08:55:24.267Z,67.93
2022-09-30T08:57:53.042Z,67.61
2022-09-30T09:00:21.006Z,68.98
2022-09-30T09:02:57.299Z,66.55
2022-09-30T09:06:02.489Z,65.03
2022-09-30T09:08:44.243Z,68.32
2022-09-30T09:11:31.255Z,65.58
2022-09-30T09:14:31.600Z,65.03
2022-09-30T09:17:16.413Z,63.42
2022-09-30T09:19:49.566Z,63.91
2022-09-30T09:22:18.222Z,63.27
2022-09-30T09:24:49.198Z,64.96
2022-09-30T09:27:44.090Z,64.22
2022-09-30T09:30:15.697Z,63.34
2022-09-30T09:32:44.302Z,63.77
2022-09-30T09:35:17.505Z,63.96
2022-09-30T09:38:09.274Z,64.60
2022-09-30T09:40:57.392Z,61.37
2022-09-30T09:44:02.743Z,61.87
2022-09-30T09:46:46.624Z,61.42
2022-09-30T09:49:23.587Z,59.46
2022-09-30T09:51:50.193Z,61.22
2022-09-30T09:54:21.480Z,60.60
2022-09-30T09:56:48.133Z,60.79
2022-09-30T09:59:20.227Z,59.20
2022-09-30T10:01:50.629Z,57.59
2022-09-30T10:04:27.497Z,54.86
2022-09-30T10:06:55.397Z,55.73
2022-09-30T10:09:31.385Z,54.02
2022-09-30T10:12:25.944Z,54.57
2022-09-30T10:14:58.041Z,53.28
2022-09-30T10:17:29.673Z,53.10
2022-09-30T10:20:14.774Z,51.29
2022-09-30T10:22:41.693Z,50.11
2022-09-30T10:25:13.993Z,50.76
2022-09-30T10:28:20.890Z,50.71
2022-09-30T10:31:04.177Z,50.29
2022-09-30T10:33:41.819Z,49.62
2022-09-30T10:36:13.821Z,49.03
2022-09-30T10:39:19.747Z,50.94
2022-09-30T10:41:46.540Z,47.42
2022-09-30T10:44:19.946Z,47.15
2022-09-30T10:46:49.604Z,45.68
2022-09-30T10:49:31.248Z,48.55
2022-09-30T10:52:00.133Z,46.92
2022-09-30T10:54:47.230Z,47.21
2022-09-30T10:57:33.559Z,46.13
2022-09-30T11:00:07.937Z,46.95
2022-09-30T11:02:37.392Z,46.92
2022-09-30T11:05:19.194Z,43.98
2022-09-30T11:08:13.217Z,43.52
2022-09-30T11:10:53.846Z,40.96
2022-09-30T11:13:49.188Z,42.66
2022-09-30T11:16:24.933Z,41.49
2022-09-30T11:19:28.035Z,40.70
2022-09-30T11:22:09.033Z,41.54
2022-09-30T11:24:42.491Z,41.47
2022-09-30T11:27:17.833Z,40.14
2022-09-30T11:30:34.789Z,39.81
2022-09-30T11:33:17.410Z,40.28
2022-09-30T11:36:14.996Z,39.90
2022-09-30T11:39:11.588Z,40.78
2022-09-30T11:41:42.269Z,39.69
2022-09-30T11:44:23.602Z,39.92
2022-09-30T11:47:19.140Z,39.95
2022-09-30T11:49:51.504Z,40.05
2022-09-30T11:52:47.201Z,40.80
2022-09-30T11:55:42.683Z,40.60
2022-09-30T11:58:36.566Z,40.30
2022-09-30T12:01:13.405Z,39.96
2022-09-30T12:03:48.238Z,39.98
2022-09-30T12:06:40.707Z,40.24
2022-09-30T12:09:25.431Z,40.16
2022-09-30T12:11:57.738Z,40.62
2022-09-30T12:14:33.469Z,41.33
2022-09-30T12:17:03.593Z,40.54
2022-09-30T12:19:40.044Z,40.24
2022-09-30T12:22:16.323Z,39.21
2022-09-30T12:24:47.702Z,39.14
2022-09-30T12:27:41.651Z,38.58
2022-09-30T12:30:23.104Z,39.07
2022-09-30T12:32:56.179Z,39.51
2022-09-30T12:35:43.996Z,39.97
2022-09-30T12:38:39.336Z,40.35
2022-09-30T12:41:15.253Z,38.90
2022-09-30T12:43:41.787Z,38.40
2022-09-30T12:46:42.264Z,38.08
2022-09-30T12:49:15.895Z,38.23
2022-09-30T12:51:44.886Z,38.33
2022-09-30T12:54:24.728Z,37.25
2022-09-30T12:57:00.514Z,37.45
2022-09-30T12:59:32.618Z,38.07
2022-09-30T13:02:02.726Z,38.30
2022-09-30T13:04:33.376Z,38.72
2022-09-30T13:06:59.953Z,37.87
2022-09-30T13:09:55.298Z,37.03
2022-09-30T13:12:41.112Z,36.81
2022-09-30T13:15:29.272Z,38.58
2022-09-30T13:18:25.433Z,38.02
2022-09-30T13:20:57.568Z,39.13
2022-09-30T13:23:49.209Z,38.08
2022-09-30T13:26:27.989Z,36.57
2022-09-30T13:29:01.858Z,36.16
2022-09-30T13:31:32.550Z,37.01
2022-09-30T13:34:02.014Z,38.26
2022-09-30T13:36:40.928Z,37.61
2022-09-30T13:39:40.366Z,37.95
2022-09-30T13:42:06.883Z,36.74
2022-09-30T13:44:40.257Z,36.79
2022-09-30T13:47:29.965Z,37.52
2022-09-30T13:50:04.212Z,36.54
2022-09-30T13:52:34.367Z,37.21
2022-09-30T13:55:29.166Z,37.03
2022-09-30T13:58:48.219Z,36.91
2022-09-30T14:01:49.873Z,37.31
2022-09-30T14:04:55.200Z,38.19
2022-09-30T14:07:43.665Z,38.09
2022-09-30T14:10:47.640Z,39.20
2022-09-30T14:13:42.454Z,38.16
2022-09-30T14:16:20.972Z,37.34
2022-09-30T14:19:24.221Z,39.18
2022-09-30T14:21:55.159Z,37.75
2022-09-30T14:24:24.021Z,37.96
2022-09-30T14:27:02.779Z,38.76
2022-09-30T14:29:58.510Z,38.05
2022-09-30T14:32:31.588Z,40.37
2022-09-30T14:35:00.494Z,39.02
2022-09-30T14:37:38.189Z,38.54
2022-09-30T14:40:12.935Z,38.71
2022-09-30T14:42:42.592Z,38.06
2022-09-30T14:45:10.424Z,38.43
2022-09-30T14:47:40.547Z,39.02
2022-09-30T14:50:20.729Z,38.50
2022-09-30T14:52:50.164Z,38.84
2022-09-30T14:55:19.543Z,39.03
2022-09-30T14:57:46.175Z,40.07
2022-09-30T15:00:20.044Z,40.15
2022-09-30T15:02:46.894Z,39.86
2022-09-30T15:05:16.191Z,39.57
2022-09-30T15:07:43.129Z,38.88
2022-09-30T15:10:18.836Z,39.35
2022-09-30T15:12:46.801Z,39.49
2022-09-30T15:15:34.543Z,39.48
2022-09-30T15:18:21.493Z,39.80
2022-09-30T15:20:48.884Z,40.96
2022-09-30T15:23:20.016Z,40.97
2022-09-30T15:25:46.832Z,40.99
2022-09-30T15:28:13.827Z,41.60
2022-09-30T15:30:43.140Z,41.76
2022-09-30T15:33:18.007Z,43.54
2022-09-30T15:35:45.692Z,42.99
2022-09-30T15:38:15.187Z,43.15
2022-09-30T15:40:46.106Z,42.70
2022-09-30T15:43:17.044Z,43.22
2022-09-30T15:45:46.107Z,43.61
2022-09-30T15:48:16.910Z,43.52
2022-09-30T15:50:49.041Z,44.19
2022-09-30T15:53:21.426Z,46.41
2022-09-30T15:55:55.759Z,46.61
2022-09-30T15:58:33.512Z,47.59
2022-09-30T16:01:09.418Z,47.05
2022-09-30T16:03:36.921Z,47.17
2022-09-30T16:06:09.315Z,47.08
2022-09-30T16:08:43.879Z,46.73
2022-09-30T16:11:20.621Z,48.00
2022-09-30T16:13:48.394Z,48.81
2022-09-30T16:16:28.106Z,49.21
2022-09-30T16:18:56.947Z,48.15
2022-09-30T16:21:45.828Z,47.62
2022-09-30T16:24:21.182Z,49.09
2022-09-30T16:26:57.807Z,49.30
2022-09-30T16:29:26.241Z,48.90
2022-09-30T16:31:55.848Z,48.98
2022-09-30T16:34:25.768Z,49.97
2022-09-30T16:37:03.834Z,50.98
2022-09-30T16:39:32.867Z,50.70
2022-09-30T16:41:59.442Z,50.50
2022-09-30T16:44:26.018Z,50.27
2022-09-30T16:46:52.846Z,48.77
2022-09-30T16:49:20.128Z,48.09
2022-09-30T16:51:49.670Z,47.87
2022-09-30T16:54:16.331Z,47.46
2022-09-30T16:56:45.955Z,47.04
2022-09-30T16:59:14.348Z,47.04
2022-09-30T17:01:41.748Z,45.52
2022-09-30T17:04:10.343Z,45.94
2022-09-30T17:06:38.514Z,47.30
2022-09-30T17:09:05.284Z,47.92
2022-09-30T17:11:38.021Z,50.62
2022-09-30T17:14:05.698Z,50.92
2022-09-30T17:16:33.475Z,51.17
2022-09-30T17:19:00.319Z,50.27
2022-09-30T17:21:27.945Z,50.49
2022-09-30T17:23:55.939Z,49.99
2022-09-30T17:26:22.703Z,49.90
2022-09-30T17:28:49.316Z,48.73
2022-09-30T17:31:19.332Z,48.93
2022-09-30T17:33:45.958Z,49.04
2022-09-30T17:36:13.430Z,48.69
2022-09-30T17:42:22.597Z,49.76
2022-09-30T17:44:49.210Z,50.73
2022-09-30T17:47:15.818Z,51.13
2022-09-30T17:49:45.013Z,51.37
2022-09-30T17:52:17.510Z,51.17
2022-09-30T17:54:46.655Z,50.89
2022-09-30T17:57:16.716Z,50.98
2022-09-30T17:59:45.345Z,51.41
2022-09-30T18:02:13.139Z,52.02
2022-09-30T18:04:39.992Z,52.25
2022-09-30T18:07:10.207Z,52.66
2022-09-30T18:09:39.169Z,52.68
2022-09-30T18:12:07.300Z,53.58
2022-09-30T18:14:38.205Z,53.35
2022-09-30T18:17:06.271Z,51.85
2022-09-30T18:19:35.580Z,52.92
2022-09-30T18:22:02.603Z,53.22
2022-09-30T18:24:47.909Z,52.64
2022-09-30T18:27:15.226Z,52.85
2022-09-30T18:29:42.055Z,52.74
2022-09-30T18:32:09.028Z,52.57
2022-09-30T18:34:35.693Z,52.76
2022-09-30T18:37:06.759Z,52.79
2022-09-30T18:39:38.211Z,51.70
2022-09-30T18:42:05.038Z,52.22
2022-09-30T18:44:33.694Z,51.78
2022-09-30T18:47:00.387Z,51.16
2022-09-30T18:49:27.046Z,52.87
2022-09-30T18:51:53.639Z,52.13
2022-09-30T18:54:20.925Z,52.42
2022-09-30T18:56:47.707Z,51.45
2022-09-30T18:59:18.185Z,51.89
2022-09-30T19:01:48.047Z,51.73
2022-09-30T19:04:15.161Z,53.70
2022-09-30T19:06:47.235Z,53.57
2022-09-30T19:09:16.424Z,52.58
2022-09-30T19:11:44.864Z,51.89
2022-09-30T19:14:13.741Z,51.78
2022-09-30T19:16:40.722Z,50.76
2022-09-30T19:19:10.387Z,51.36
2022-09-30T19:21:38.191Z,51.32
2022-09-30T19:24:06.865Z,50.72
2022-09-30T19:26:38.200Z,50.57
2022-09-30T19:29:07.271Z,50.97
2022-09-30T19:31:36.417Z,50.78
2022-09-30T19:34:14.655Z,50.30
2022-09-30T19:36:51.158Z,51.75
2022-09-30T19:39:45.417Z,52.40
2022-09-30T19:42:23.853Z,52.32
2022-09-30T19:44:56.204Z,53.22
2022-09-30T19:47:22.841Z,53.39
2022-09-30T19:49:49.547Z,53.13
2022-09-30T19:52:22.347Z,52.88
2022-09-30T19:54:50.804Z,52.79
2022-09-30T19:57:17.407Z,53.27
2022-09-30T19:59:44.085Z,53.20
2022-09-30T20:02:11.591Z,52.92
2022-09-30T20:04:39.686Z,53.17
2022-09-30T20:07:06.361Z,53.52
2022-09-30T20:09:32.980Z,54.04
2022-09-30T20:11:59.691Z,54.21
2022-09-30T20:14:44.840Z,53.86
2022-09-30T20:17:12.440Z,54.34
2022-09-30T20:19:39.220Z,54.65
2022-09-30T20:22:33.356Z,55.59
2022-09-30T20:25:25.654Z,55.45
2022-09-30T20:27:52.851Z,55.63
2022-09-30T20:30:25.602Z,55.21
2022-09-30T20:32:53.424Z,55.36
2022-09-30T20:35:21.283Z,55.42
2022-09-30T20:37:47.942Z,56.11
2022-09-30T20:40:14.845Z,55.83
2022-09-30T20:42:43.766Z,55.85
2022-09-30T20:45:11.000Z,55.57
2022-09-30T20:47:39.760Z,55.97
2022-09-30T20:50:07.099Z,55.31
2022-09-30T20:52:34.062Z,55.08
2022-09-30T20:55:03.256Z,54.79
2022-09-30T20:57:30.211Z,54.20
2022-09-30T20:59:59.211Z,54.18
2022-09-30T21:02:28.192Z,54.20
2022-09-30T21:04:57.571Z,54.42
2022-09-30T21:07:25.378Z,56.45
2022-09-30T21:09:52.612Z,55.69
2022-09-30T21:12:19.430Z,56.09
2022-09-30T21:14:46.170Z,56.73
2022-09-30T21:17:12.875Z,56.05
2022-09-30T21:19:40.033Z,56.18
2022-09-30T21:22:07.289Z,55.69
2022-09-30T21:24:41.246Z,55.67
2022-09-30T21:30:04.411Z,55.42
2022-09-30T21:32:30.989Z,55.59
2022-09-30T21:34:57.577Z,55.68
2022-09-30T21:37:24.668Z,55.23
2022-09-30T21:39:51.478Z,55.67
2022-09-30T21:42:19.029Z,56.11
2022-09-30T21:44:45.734Z,56.26
2022-09-30T21:47:12.315Z,56.25
2022-09-30T21:49:38.909Z,56.76
2022-09-30T21:52:09.253Z,56.39
2022-09-30T21:54:37.289Z,57.19
2022-09-30T21:57:04.007Z,56.88
2022-09-30T21:59:30.734Z,57.11
2022-09-30T22:01:57.446Z,56.87
2022-09-30T22:04:24.312Z,57.15
2022-09-30T22:06:50.987Z,57.76
2022-09-30T22:09:17.648Z,58.93
2022-09-30T22:11:44.340Z,59.75
2022-09-30T22:14:10.932Z,60.14
2022-09-30T22:16:38.116Z,59.81
2022-09-30T22:19:07.463Z,59.63
2022-09-30T22:21:36.898Z,59.00
2022-09-30T22:24:06.070Z,59.38
2022-09-30T22:26:33.379Z,61.21
2022-09-30T22:29:07.928Z,60.59
2022-09-30T22:31:34.995Z,60.28
2022-09-30T22:34:22.504Z,61.38
2022-09-30T22:37:08.016Z,60.57
2022-09-30T22:39:35.242Z,59.91
2022-09-30T22:42:02.264Z,59.57
2022-09-30T22:44:32.531Z,59.99
2022-09-30T22:47:00.235Z,60.68
2022-09-30T22:49:29.379Z,59.82
2022-09-30T22:51:56.990Z,62.63
2022-09-30T22:54:25.292Z,61.95
2022-09-30T22:56:52.335Z,62.03
2022-09-30T22:59:19.886Z,61.26
2022-09-30T23:01:46.858Z,60.82
2022-09-30T23:04:17.394Z,59.75
2022-09-30T23:06:49.043Z,60.52
2022-09-30T23:09:17.370Z,59.90
2022-09-30T23:11:46.081Z,59.75
2022-09-30T23:14:13.175Z,59.81
2022-09-30T23:16:40.347Z,60.08
2022-09-30T23:19:07.186Z,60.58
2022-09-30T23:21:34.261Z,61.23
2022-09-30T23:24:03.188Z,60.67
2022-09-30T23:26:31.192Z,60.87
2022-09-30T23:28:59.046Z,60.58
2022-09-30T23:31:26.573Z,60.53
2022-09-30T23:33:56.755Z,60.27
2022-09-30T23:36:32.036Z,60.50
2022-09-30T23:39:04.752Z,60.67
2022-09-30T23:41:32.816Z,63.33
2022-09-30T23:44:00.022Z,62.64
2022-09-30T23:46:26.925Z,62.23
2022-09-30T23:48:53.609Z,61.36
2022-09-30T23:51:20.279Z,60.84
2022-09-30T23:53:46.977Z,60.77
2022-09-30T23:56:16.385Z,60.70
2022-09-30T23:58:43.874Z,60.50
